Flight Track Log - Related Links

Times and Time Zones

All times are in EDT time to prevent confusion due to time zone crossing. See the CSJ405 flight status page for this flight to view local times or setup timezone preferences in your user account.

Time Position Orientation Groundspeed Altitude Reporting Facility
EDT Latitude Longitude Course Direction KTS MPH feet Rate Location/Type
Thu 09:48:43 PM 43.1097 -77.6881 276° West 103 119 1,100  Level Cleveland Center
Thu 09:49:50 PM 43.1128 -77.7306 276° West 101 116 2,300 1,039 Climbing Cleveland Center
Thu 09:50:50 PM 43.1139 -77.7733 272° West 109 125 3,300 893 Climbing Cleveland Center
Thu 09:51:51 PM 43.1189 -77.8128 280° West 112 129 4,100 393 Climbing Cleveland Center
Thu 09:52:52 PM 43.1203 -77.8725 272° West 164 189 4,100 -34 Level Cleveland Center
Thu 09:54:49 PM 43.1333 -78.0000 278° West 166 191 4,000 -33 Descending Buffalo TRACON
Thu 09:55:55 PM 43.1333 -78.0667 270° West 166 191 4,000  Level Buffalo TRACON
Thu 09:57:01 PM 43.1333 -78.1333 270° West 165 190 4,000  Level Buffalo TRACON
Thu 09:58:01 PM 43.1333 -78.1833 270° West 163 188 4,000  Level Buffalo TRACON
Thu 09:59:07 PM 43.1333 -78.2667 270° West 162 186 4,000  Level Buffalo TRACON
Thu 10:00:07 PM 43.1333 -78.3167 270° West 162 186 4,000  Level Buffalo TRACON
Thu 10:01:07 PM 43.1333 -78.3833 270° West 159 183 4,000  Level Buffalo TRACON
Thu 10:03:07 PM 43.1500 -78.5000 281° West 156 180 4,000  Level Buffalo TRACON
Thu 10:04:13 PM 43.1500 -78.5667 270° West 158 182 4,000  Level Buffalo TRACON
Thu 10:05:13 PM 43.1500 -78.6167 270° West 155 178 4,000  Level Buffalo TRACON
Thu 10:06:13 PM 43.1500 -78.6833 270° West 160 184 4,000 50 Level Buffalo TRACON
Thu 10:07:13 PM 43.1500 -78.7500 270° West 161 185 4,100 57 Climbing Buffalo TRACON
Thu 10:07:58 PM 43.1500 -78.7667 270° West 160 184 4,100  Level Toronto Center
Thu 10:08:58 PM 43.1500 -78.8333 270° West 160 184 4,100  Level Toronto Center
Thu 10:09:58 PM 43.1500 -78.9000 270° West 160 184 4,100 -50 Level Toronto Center
Thu 10:10:58 PM 43.1500 -78.9500 270° West 160 184 4,000  Descending Toronto Center
Thu 10:11:58 PM 43.1500 -79.0167 270° West 160 184 4,100  Climbing Toronto Center
Thu 10:12:58 PM 43.1500 -79.0833 270° West 160 184 4,000  Descending Toronto Center
Thu 10:13:58 PM 43.1500 -79.1333 270° West 160 184 4,100 50 Climbing Toronto Center
Thu 10:14:58 PM 43.1500 -79.2000 270° West 160 184 4,100 -50 Level Toronto Center
Thu 10:15:58 PM 43.1500 -79.2667 270° West 160 184 4,000  Descending Toronto Center
Thu 10:16:58 PM 43.1500 -79.3167 270° West 160 184 4,100 50 Climbing Toronto Center
Thu 10:17:58 PM 43.1500 -79.3833 270° West 160 184 4,100 -50 Level Toronto Center
Thu 10:18:58 PM 43.1500 -79.4500 270° West 160 184 4,000 -50 Descending Toronto Center
Thu 10:19:58 PM 43.1500 -79.5000 270° West 160 184 4,000 -100 Level Toronto Center
Thu 10:20:58 PM 43.1667 -79.5667 289° West 160 184 3,800 -350 Descending Toronto Center
Thu 10:21:58 PM 43.1667 -79.6333 270° West 170 196 3,300 -450 Descending Toronto Center
Thu 10:22:58 PM 43.1667 -79.7000 270° West 170 196 2,900 -400 Descending Toronto Center
Thu 10:23:58 PM 43.1667 -79.7500 270° West 170 196 2,500 -400 Descending Toronto Center
Thu 10:24:58 PM 43.1667 -79.8167 270° West 170 196 2,100 -650 Descending Toronto Center
Thu 10:25:58 PM 43.1667 -79.8833 270° West 170 196 1,200 -650 Descending Toronto Center
Thu 10:26:58 PM 43.1667 -79.9000 270° West 90 104 800 -200 Descending Toronto Center
Thu 10:27:58 PM 43.1500 -79.9000 180° South 30 35 800  Level Toronto Center

Login

Don't have an account? Register now (free) for customized features, flight alerts, and more!